KLAM

Details ICAO KLAM (LAM)
Name LOS ALAMOS
Region United States
Timezone America/Denver (UTC-7.0)
Plans Departing 4
Arriving 5
Stats Elevation 7,171 ft / 2,186 m (AMSL)
Location 35.879808° -106.269413°
Runways 1
Magnetic Variation 8.562° E
Sunrise 2017-01-17 14:15:06 UTC / 2017-01-17 07:15:06 Local
Sunset 2017-01-18 00:17:41 UTC / 2017-01-17 17:17:41 Local
Advertisement - Login to hide

Runways

ID Width Length Bearing (true) Bearing (mag) Surface Threshold Offset Overrun Length
09 113 ft / 34 m 5,538 ft / 1,688 m 102.45° 93.89° Asphalt 0 ft / 0 m 0 ft / 0 m
27 113 ft / 34 m 5,538 ft / 1,688 m 282.46° 273.90° Asphalt 0 ft / 0 m 0 ft / 0 m

Map

Weather

Temperature
Clouds and Precipitation
Forecast for 2017-01-18 06:00 UTC. Updated 27 minutes ago
Winds

METAR

KLAM 180335Z AUTO 00000KT 10SM SCT090 SCT120 02/M02 A3012 RMK AO2 T00161021

TAF

Not found

Frequencies

Recorded 124.17 MHz AWOS 3
Unicom 123.00 MHz CTAF/UNICOM
Warning: Do not use this data for real-world aviation or navigation. No guarantee of current accuracy is given.